Time;durP1;ratioP1;P1;durP2;ratioP2;P2;SDS_P1;SDS_P2;PMS_P1;PMS_P2;Temp;Humidity;BMP_temperature;BMP_pressure;BME280_temperature;BME280_humidity;BME280_pressure;Samples;Min_cycle;Max_cycle;Signal;HPM_P1;HPM_P2
2023/09/20 00:04:04;;;;;;;43.33;14.95;;;;;;;;;;10358130;23;20016;-91
2023/09/20 00:18:19;;;;;;;32.40;16.00;;;;;;;;;;10339153;23;20502;-94
2023/09/20 00:22:34;;;;;;;32.50;13.80;;;;;;;;;;10423951;22;20340;-94
2023/09/20 00:26:38;;;;;;;38.30;15.38;;;;;;;;;;10447135;22;20019;-96
2023/09/20 00:36:17;;;;;;;34.78;15.25;;;;;;;;;;10460638;22;20030;-94
2023/09/20 00:40:27;;;;;;;31.33;13.85;;;;;;;;;;10460066;22;20015;-91
2023/09/20 00:44:50;;;;;;;;;;;;;;;;;;10460078;22;20339;-92
2023/09/20 00:54:04;;;;;;;36.47;15.07;;;;;;;;;;10340031;22;20031;-93
2023/09/20 00:58:30;;;;;;;35.22;15.75;;;;;;;;;;10381979;22;20019;-96
2023/09/20 01:03:22;;;;;;;36.22;15.15;;;;;;;;;;10308320;23;20438;-92
2023/09/20 01:07:51;;;;;;;34.83;15.38;;;;;;;;;;10364964;22;20047;-90
2023/09/20 01:12:06;;;;;;;31.05;14.32;;;;;;;;;;10442441;22;20015;-91
2023/09/20 01:27:38;;;;;;;30.83;13.68;;;;;;;;;;10436027;22;20019;-91
2023/09/20 01:36:58;;;;;;;32.92;13.95;;;;;;;;;;10436029;22;20030;-91
2023/09/20 01:41:01;;;;;;;;;;;;;;;;;;10442525;22;20053;-91
2023/09/20 01:45:15;;;;;;;32.42;14.90;;;;;;;;;;10441693;22;19937;-91
2023/09/20 01:57:59;;;;;;;30.35;15.35;;;;;;;;;;10390748;22;20047;-91
2023/09/20 02:02:23;;;;;;;33.38;14.40;;;;;;;;;;10407408;22;20450;-92
2023/09/20 02:06:29;;;;;;;26.23;13.65;;;;;;;;;;10390289;22;20019;-91
2023/09/20 02:10:44;;;;;;;30.17;13.25;;;;;;;;;;10407193;22;20015;-91
2023/09/20 02:15:07;;;;;;;27.35;14.00;;;;;;;;;;10389802;22;20015;-92
2023/09/20 02:19:19;;;;;;;30.60;14.13;;;;;;;;;;10406917;22;20019;-93
2023/09/20 02:23:39;;;;;;;24.33;12.10;;;;;;;;;;10390040;22;20095;-91
2023/09/20 02:28:01;;;;;;;26.83;13.07;;;;;;;;;;10316539;22;20580;-92
2023/09/20 02:32:20;;;;;;;90.10;29.50;;;;;;;;;;10406621;22;20448;-91
2023/09/20 02:36:38;;;;;;;40.07;16.83;;;;;;;;;;10408746;22;20019;-90
2023/09/20 02:40:59;;;;;;;34.90;14.80;;;;;;;;;;10406398;22;20081;-91
2023/09/20 02:51:06;;;;;;;40.58;15.65;;;;;;;;;;10437751;22;20023;-91
2023/09/20 02:56:14;;;;;;;31.30;13.85;;;;;;;;;;10439862;22;20020;-91
2023/09/20 03:00:21;;;;;;;32.80;14.43;;;;;;;;;;10441091;22;20090;-91
2023/09/20 03:04:37;;;;;;;41.78;16.17;;;;;;;;;;10447814;22;20344;-90
2023/09/20 03:08:44;;;;;;;41.55;15.25;;;;;;;;;;10439353;22;20054;-90
2023/09/20 03:12:48;;;;;;;37.90;15.95;;;;;;;;;;10439575;22;20050;-90
2023/09/20 03:16:58;;;;;;;38.72;16.08;;;;;;;;;;10439040;22;20015;-90
2023/09/20 03:21:07;;;;;;;40.17;16.60;;;;;;;;;;10456803;22;20025;-91
2023/09/20 03:25:34;;;;;;;42.13;16.15;;;;;;;;;;10439681;22;20019;-91
2023/09/20 03:29:40;;;;;;;41.25;16.88;;;;;;;;;;10456227;22;20016;-91
2023/09/20 03:33:44;;;;;;;45.00;17.35;;;;;;;;;;10439353;22;20034;-92
2023/09/20 03:38:32;;;;;;;48.45;18.73;;;;;;;;;;10420581;22;20110;-90
2023/09/20 03:54:12;;;;;;;34.95;15.15;;;;;;;;;;10378087;22;20046;-91
2023/09/20 04:15:26;;;;;;;40.45;15.43;;;;;;;;;;10388447;22;20015;-91
2023/09/20 04:31:22;;;;;;;37.83;14.80;;;;;;;;;;10420440;22;20054;-91
2023/09/20 04:46:36;;;;;;;34.53;15.00;;;;;;;;;;10266395;22;20381;-91
2023/09/20 04:56:33;;;;;;;37.63;17.55;;;;;;;;;;10380299;22;20073;-92
2023/09/20 05:00:38;;;;;;;40.00;16.70;;;;;;;;;;10442462;22;20023;-90
2023/09/20 05:04:45;;;;;;;40.35;17.65;;;;;;;;;;10442636;22;20344;-92
2023/09/20 05:09:03;;;;;;;46.35;19.23;;;;;;;;;;10442276;22;20094;-91
2023/09/20 05:13:13;;;;;;;37.88;17.52;;;;;;;;;;10442410;22;20445;-92
2023/09/20 05:17:16;;;;;;;45.05;20.83;;;;;;;;;;10442260;22;20023;-91
2023/09/20 05:21:32;;;;;;;38.65;18.00;;;;;;;;;;10458882;22;20015;-91
2023/09/20 05:25:38;;;;;;;38.55;17.52;;;;;;;;;;10442215;22;20343;-92
2023/09/20 05:29:41;;;;;;;35.70;17.25;;;;;;;;;;10442863;22;20026;-91
2023/09/20 05:33:44;;;;;;;37.22;17.88;;;;;;;;;;10442593;22;20031;-90
2023/09/20 05:37:52;;;;;;;32.40;16.08;;;;;;;;;;10442205;22;20069;-91
2023/09/20 05:41:58;;;;;;;23.65;13.02;;;;;;;;;;10367074;22;20215;-90
2023/09/20 05:46:07;;;;;;;21.48;12.15;;;;;;;;;;10460055;22;20455;-91
2023/09/20 05:50:12;;;;;;;17.65;11.98;;;;;;;;;;10461219;22;20019;-90
2023/09/20 05:54:19;;;;;;;18.48;13.18;;;;;;;;;;10473894;22;20027;-90
2023/09/20 05:58:22;;;;;;;16.88;9.80;;;;;;;;;;10492773;22;20447;-93
2023/09/20 06:02:25;;;;;;;16.23;10.10;;;;;;;;;;10485354;22;20014;-94
2023/09/20 06:11:51;;;;;;;;;;;;;;;;;;10443158;22;20058;-92
2023/09/20 06:15:54;;;;;;;15.77;8.52;;;;;;;;;;10458983;22;19915;-91
2023/09/20 06:19:57;;;;;;;10.13;6.55;;;;;;;;;;10446057;22;20015;-92
2023/09/20 06:24:01;;;;;;;11.02;6.22;;;;;;;;;;10441625;22;20039;-91
2023/09/20 06:28:07;;;;;;;10.27;5.82;;;;;;;;;;10441508;22;20015;-90
2023/09/20 06:32:12;;;;;;;7.82;5.13;;;;;;;;;;10464759;22;20082;-90
2023/09/20 06:36:20;;;;;;;7.68;5.05;;;;;;;;;;10463210;22;20023;-90
2023/09/20 06:40:34;;;;;;;7.18;4.38;;;;;;;;;;10464152;22;20023;-90
2023/09/20 06:44:39;;;;;;;7.47;4.05;;;;;;;;;;10464142;22;20015;-92
2023/09/20 06:48:42;;;;;;;7.13;3.80;;;;;;;;;;10464435;22;20049;-90
2023/09/20 06:52:47;;;;;;;6.20;4.00;;;;;;;;;;10445779;22;20023;-92
2023/09/20 06:56:51;;;;;;;7.57;3.78;;;;;;;;;;10419899;22;20027;-90
2023/09/20 07:05:15;;;;;;;7.13;3.60;;;;;;;;;;10420206;22;20027;-91
2023/09/20 07:09:34;;;;;;;5.88;3.20;;;;;;;;;;10448036;22;20014;-90
2023/09/20 07:13:38;;;;;;;6.55;3.50;;;;;;;;;;10444365;22;20027;-89
2023/09/20 07:17:50;;;;;;;6.88;3.25;;;;;;;;;;10448630;22;20072;-91
2023/09/20 07:21:56;;;;;;;6.57;3.05;;;;;;;;;;10449959;22;20034;-90
2023/09/20 07:26:07;;;;;;;5.47;3.00;;;;;;;;;;10420163;22;20027;-90
2023/09/20 07:30:14;;;;;;;5.28;3.30;;;;;;;;;;10466417;22;20034;-90
2023/09/20 07:34:23;;;;;;;4.90;2.78;;;;;;;;;;10460604;22;20015;-90
2023/09/20 07:38:28;;;;;;;4.18;2.70;;;;;;;;;;10442310;22;20456;-90
2023/09/20 07:42:35;;;;;;;8.50;3.55;;;;;;;;;;10467030;22;20023;-91
2023/09/20 07:46:39;;;;;;;4.32;2.72;;;;;;;;;;10483335;22;20046;-95
2023/09/20 07:51:31;;;;;;;4.55;2.90;;;;;;;;;;10475606;22;20085;-91
2023/09/20 07:56:03;;;;;;;7.60;3.10;;;;;;;;;;10321375;22;20051;-92
2023/09/20 08:05:15;;;;;;;7.88;3.13;;;;;;;;;;10297484;23;20027;-91
2023/09/20 08:09:20;;;;;;;4.90;2.53;;;;;;;;;;10294563;23;20028;-92
2023/09/20 08:13:31;;;;;;;5.03;2.80;;;;;;;;;;10299710;23;20024;-91
2023/09/20 09:07:59;;;;;;;4.50;2.40;;;;;;;;;;10469359;22;20026;-95
2023/09/20 09:12:11;;;;;;;4.28;2.30;;;;;;;;;;10390619;22;20031;-94
2023/09/20 09:16:50;;;;;;;5.75;2.58;;;;;;;;;;10462737;22;20164;-94
2023/09/20 09:21:01;;;;;;;3.72;2.40;;;;;;;;;;10394358;22;20038;-94
2023/09/20 09:25:29;;;;;;;6.70;2.72;;;;;;;;;;10450814;22;20521;-94
2023/09/20 09:29:36;;;;;;;3.17;2.20;;;;;;;;;;10425749;22;20028;-94
2023/09/20 09:33:50;;;;;;;4.35;2.30;;;;;;;;;;10454208;22;20019;-93
2023/09/20 09:42:30;;;;;;;4.38;2.40;;;;;;;;;;10417452;22;20030;-94
2023/09/20 09:46:46;;;;;;;3.78;2.38;;;;;;;;;;10477093;22;20023;-94
2023/09/20 09:51:14;;;;;;;6.35;2.38;;;;;;;;;;10415892;22;20047;-95
2023/09/20 09:55:24;;;;;;;6.10;2.42;;;;;;;;;;10390724;22;20019;-93
2023/09/20 10:00:16;;;;;;;3.55;2.08;;;;;;;;;;10458266;22;20027;-93
2023/09/20 10:04:39;;;;;;;7.35;2.42;;;;;;;;;;10476129;22;20092;-92
2023/09/20 10:09:11;;;;;;;5.28;2.50;;;;;;;;;;10460920;22;20030;-94
2023/09/20 10:13:23;;;;;;;4.10;2.30;;;;;;;;;;10377960;22;20023;-94
2023/09/20 10:17:56;;;;;;;4.50;2.20;;;;;;;;;;10427829;22;20030;-95
2023/09/20 10:22:08;;;;;;;4.60;2.30;;;;;;;;;;10453614;22;20019;-94
2023/09/20 10:26:17;;;;;;;5.22;2.55;;;;;;;;;;10471966;22;20047;-95
2023/09/20 10:31:02;;;;;;;5.35;2.47;;;;;;;;;;10451286;22;20364;-93
2023/09/20 10:35:44;;;;;;;6.50;2.45;;;;;;;;;;10384549;22;20049;-94
2023/09/20 10:39:56;;;;;;;4.35;2.25;;;;;;;;;;10453171;22;20019;-94
2023/09/20 10:44:30;;;;;;;6.72;2.38;;;;;;;;;;10455231;22;20068;-93
2023/09/20 10:49:09;;;;;;;4.95;2.58;;;;;;;;;;10456783;22;20053;-94
2023/09/20 10:53:23;;;;;;;6.33;2.83;;;;;;;;;;10403961;22;20026;-96
2023/09/20 10:58:09;;;;;;;6.13;3.07;;;;;;;;;;10455141;22;20019;-94
2023/09/20 11:02:52;;;;;;;7.35;2.80;;;;;;;;;;10456799;22;20034;-94
2023/09/20 11:11:53;;;;;;;6.53;2.65;;;;;;;;;;10406338;22;20374;-95
2023/09/20 11:31:01;;;;;;;6.97;2.08;;;;;;;;;;10410893;22;20099;-95
2023/09/20 11:40:42;;;;;;;6.07;2.20;;;;;;;;;;10430892;22;20038;-96
2023/09/20 11:54:15;;;;;;;6.82;2.30;;;;;;;;;;10183458;22;20027;-95
2023/09/20 12:28:03;;;;;;;4.22;2.45;;;;;;;;;;10371642;22;20023;-94
2023/09/20 12:32:31;;;;;;;5.25;2.00;;;;;;;;;;10236503;23;20024;-95
2023/09/20 12:36:40;;;;;;;6.13;2.30;;;;;;;;;;10331449;22;20163;-96
2023/09/20 12:41:08;;;;;;;4.18;2.17;;;;;;;;;;10458836;22;20049;-93
2023/09/20 12:45:14;;;;;;;5.63;2.05;;;;;;;;;;10336695;22;20086;-95
2023/09/20 12:58:21;;;;;;;7.60;2.50;;;;;;;;;;10449492;22;20027;-92
2023/09/20 13:02:29;;;;;;;3.00;1.73;;;;;;;;;;10479516;22;20035;-95
2023/09/20 14:11:26;;;;;;;3.33;1.92;;;;;;;;;;10395398;22;20023;-94
2023/09/20 14:40:41;;;;;;;3.45;1.90;;;;;;;;;;10348095;22;20182;-93
2023/09/20 15:50:04;;;;;;;2.83;2.00;;;;;;;;;;10301167;22;20024;-95
2023/09/20 16:46:36;;;;;;;5.68;2.85;;;;;;;;;;10435210;22;20060;-91
2023/09/20 16:59:45;;;;;;;33.20;16.02;;;;;;;;;;10453615;22;20237;-93
2023/09/20 17:28:22;;;;;;;36.97;14.32;;;;;;;;;;10350062;22;20023;-95
2023/09/20 17:57:36;;;;;;;23.00;8.98;;;;;;;;;;10393219;22;20034;-94
2023/09/20 18:07:44;;;;;;;90.35;40.40;;;;;;;;;;10423688;22;20639;-94
2023/09/20 18:36:22;;;;;;;19.65;13.10;;;;;;;;;;10450933;22;20058;-95
2023/09/20 18:40:26;;;;;;;29.92;21.55;;;;;;;;;;10452120;22;20037;-93
2023/09/20 19:00:52;;;;;;;27.08;12.82;;;;;;;;;;10439976;22;20056;-94
2023/09/20 19:05:50;;;;;;;29.38;12.27;;;;;;;;;;10189643;23;20021;-94
2023/09/20 19:21:34;;;;;;;;;;;;;;;;;;;;;
2023/09/20 19:31:37;;;;;;;26.60;13.17;;;;;;;;;;10311228;22;20044;-91
2023/09/20 19:36:34;;;;;;;19.75;10.13;;;;;;;;;;10378749;22;20021;-92
2023/09/20 19:45:43;;;;;;;15.93;9.27;;;;;;;;;;10329536;22;20037;-94
2023/09/20 20:40:17;;;;;;;14.95;7.82;;;;;;;;;;10405554;22;20030;-95
2023/09/20 21:23:42;;;;;;;15.45;8.77;;;;;;;;;;10402110;22;20090;-94
2023/09/20 21:33:04;;;;;;;12.10;7.22;;;;;;;;;;10387132;22;20031;-95
2023/09/20 21:54:01;;;;;;;14.35;9.32;;;;;;;;;;10376855;22;20394;31
2023/09/20 21:58:59;;;;;;;18.00;8.52;;;;;;;;;;10399488;22;20030;-93
2023/09/20 22:03:07;;;;;;;15.32;8.32;;;;;;;;;;10389742;22;20020;-94
2023/09/20 22:28:18;;;;;;;17.70;8.38;;;;;;;;;;10376522;22;20356;-93
2023/09/20 22:33:21;;;;;;;18.70;8.55;;;;;;;;;;10382907;22;20049;-94
2023/09/20 23:22:00;;;;;;;18.40;8.82;;;;;;;;;;10276056;22;20022;-93
